Time;durP1;ratioP1;P1;durP2;ratioP2;P2;SDS_P1;SDS_P2;PMS_P1;PMS_P2;Temp;Humidity;BMP_temperature;BMP_pressure;BME280_temperature;BME280_humidity;BME280_pressure;Samples;Min_cycle;Max_cycle;Signal;HPM_P1;HPM_P2
2022/10/23 00:01:25;;;;;;;23.20;15.27;;;11.10;99.90;;;;;;5071318;28;19910;-76
2022/10/23 00:03:53;;;;;;;21.08;12.82;;;11.10;99.90;;;;;;5053467;28;20206;-76
2022/10/23 00:06:19;;;;;;;23.45;14.95;;;11.20;99.90;;;;;;5053312;28;20044;-76
2022/10/23 00:08:45;;;;;;;;;;;11.20;99.90;;;;;;5053432;28;20028;-76
2022/10/23 00:11:13;;;;;;;24.45;15.10;;;11.30;99.90;;;;;;5071190;28;19919;-76
2022/10/23 00:13:41;;;;;;;20.38;13.38;;;11.30;99.90;;;;;;5053156;28;20044;-77
2022/10/23 00:16:07;;;;;;;25.60;17.42;;;11.30;99.90;;;;;;5053036;28;20036;-77
2022/10/23 00:18:34;;;;;;;29.77;18.83;;;11.40;99.90;;;;;;5071106;28;20032;-76
2022/10/23 00:21:00;;;;;;;17.40;11.85;;;11.30;99.90;;;;;;5053288;28;20033;-77
2022/10/23 00:23:25;;;;;;;18.83;13.00;;;11.20;99.90;;;;;;5053301;28;20029;-76
2022/10/23 00:25:51;;;;;;;;;;;11.20;99.90;;;;;;5071302;28;20070;-77
2022/10/23 00:28:17;;;;;;;13.45;9.65;;;11.20;99.90;;;;;;5052492;28;20336;-76
2022/10/23 00:30:42;;;;;;;;;;;11.30;99.90;;;;;;5071067;28;20071;-75
2022/10/23 00:33:09;;;;;;;14.63;9.35;;;11.30;99.90;;;;;;5070422;28;19922;-76
2022/10/23 00:35:37;;;;;;;14.75;9.50;;;11.40;99.90;;;;;;5070788;28;20036;-77
2022/10/23 00:38:03;;;;;;;12.77;8.75;;;11.40;99.90;;;;;;5052882;28;20038;-76
2022/10/23 00:40:29;;;;;;;;;;;11.50;99.90;;;;;;5052833;28;20139;-76
2022/10/23 00:42:54;;;;;;;10.73;7.70;;;11.50;99.90;;;;;;5052008;28;19916;-76
2022/10/23 00:45:22;;;;;;;;;;;11.50;99.90;;;;;;5053059;28;20033;-76
2022/10/23 00:47:48;;;;;;;10.38;7.25;;;11.50;99.90;;;;;;5052186;28;19911;-76
2022/10/23 00:50:14;;;;;;;11.90;7.60;;;11.50;99.90;;;;;;5070381;28;20616;-76
2022/10/23 00:52:47;;;;;;;16.83;10.95;;;11.60;99.90;;;;;;5070574;28;20555;-76
2022/10/23 00:55:14;;;;;;;16.48;10.38;;;11.50;99.90;;;;;;5070724;28;20115;-76
2022/10/23 00:57:42;;;;;;;22.77;14.10;;;11.50;99.90;;;;;;5052205;28;20127;-76
2022/10/23 01:00:16;;;;;;;15.93;9.63;;;11.60;99.90;;;;;;5052666;28;20032;-76
2022/10/23 01:02:42;;;;;;;12.80;8.25;;;11.60;99.90;;;;;;5070117;28;20762;-76
2022/10/23 01:05:07;;;;;;;;;;;11.70;99.90;;;;;;5052658;28;20526;-77
2022/10/23 01:08:18;;;;;;;13.25;7.72;;;11.70;99.90;;;;;;5070054;28;19912;-76
2022/10/23 01:10:55;;;;;;;15.73;9.45;;;11.70;99.90;;;;;;4988522;28;20030;-76
2022/10/23 01:13:56;;;;;;;19.95;11.30;;;11.70;99.90;;;;;;4988422;28;20045;-76
2022/10/23 01:16:49;;;;;;;17.63;10.40;;;11.70;99.90;;;;;;5038562;28;20052;-76
2022/10/23 01:19:47;;;;;;;12.13;7.25;;;11.70;99.90;;;;;;5052461;28;20039;-76
2022/10/23 01:22:37;;;;;;;7.30;4.85;;;11.80;99.90;;;;;;5008568;28;20128;-76
2022/10/23 01:25:41;;;;;;;19.40;9.05;;;11.90;99.90;;;;;;5069694;28;20023;-76
2022/10/23 01:28:13;;;;;;;44.70;14.73;;;11.90;99.90;;;;;;5021487;28;20040;-74
2022/10/23 01:30:42;;;;;;;12.50;6.38;;;11.90;99.90;;;;;;5069585;28;20052;-73
2022/10/23 01:33:35;;;;;;;15.95;6.88;;;12.00;99.90;;;;;;5069494;28;20037;-74
2022/10/23 01:36:10;;;;;;;6.18;4.13;;;12.10;99.90;;;;;;5045196;28;20035;-74
2022/10/23 01:38:52;;;;;;;11.98;6.28;;;12.10;99.90;;;;;;5069422;28;20527;-74
2022/10/23 01:41:30;;;;;;;6.63;4.15;;;12.10;99.90;;;;;;5069505;28;20032;-73
2022/10/23 01:44:23;;;;;;;12.40;6.60;;;12.20;99.90;;;;;;5069654;28;20028;-75
2022/10/23 01:46:51;;;;;;;14.38;7.07;;;12.20;99.90;;;;;;5069590;28;20396;-74
2022/10/23 01:49:21;;;;;;;22.10;10.60;;;12.20;99.90;;;;;;5069740;28;20031;-74
2022/10/23 01:51:53;;;;;;;11.93;5.95;;;12.20;99.90;;;;;;5070899;28;20031;-74
2022/10/23 01:54:25;;;;;;;13.05;4.00;;;12.10;99.90;;;;;;5052870;28;20401;-74
2022/10/23 01:56:51;;;;;;;7.68;5.30;;;12.10;99.90;;;;;;5052349;28;20111;-74
2022/10/23 01:59:23;;;;;;;9.95;6.07;;;12.00;99.90;;;;;;5052162;28;20113;-74
2022/10/23 02:01:51;;;;;;;8.80;7.07;;;11.70;99.90;;;;;;5070003;28;20025;-74
2022/10/23 02:04:25;;;;;;;14.70;8.43;;;11.60;99.90;;;;;;5070414;28;20488;-74
2022/10/23 02:06:51;;;;;;;9.82;7.45;;;11.50;99.90;;;;;;5070533;28;20163;-74
2022/10/23 02:09:17;;;;;;;;;;;11.30;99.90;;;;;;5070207;28;20238;-74
2022/10/23 02:11:58;;;;;;;11.57;7.05;;;11.10;99.90;;;;;;5050844;28;20364;-74
2022/10/23 02:14:43;;;;;;;9.80;7.45;;;11.00;99.90;;;;;;5050868;28;20041;-73
2022/10/23 02:17:44;;;;;;;9.93;6.03;;;10.90;99.90;;;;;;5069269;28;20396;-76
2022/10/23 02:20:12;;;;;;;7.70;5.28;;;10.80;99.90;;;;;;5051785;28;20045;-76
2022/10/23 02:22:46;;;;;;;8.23;6.13;;;10.80;99.90;;;;;;5069289;28;20056;-76
2022/10/23 02:25:12;;;;;;;7.82;6.00;;;10.70;99.90;;;;;;5051028;28;20496;-76
2022/10/23 02:27:39;;;;;;;;;;;10.70;99.90;;;;;;5051548;28;20082;-76
2022/10/23 02:30:09;;;;;;;;;;;10.70;99.90;;;;;;5051663;28;19908;-76
2022/10/23 02:32:40;;;;;;;8.95;6.13;;;10.70;99.90;;;;;;5051004;28;19908;-76
2022/10/23 02:35:07;;;;;;;6.47;5.53;;;10.70;99.90;;;;;;5069469;28;20036;-76
2022/10/23 02:37:33;;;;;;;9.23;6.45;;;10.70;99.90;;;;;;5074747;28;20563;-75
2022/10/23 02:39:59;;;;;;;;;;;10.60;99.90;;;;;;5074554;28;20086;-77
2022/10/23 02:42:44;;;;;;;14.60;7.60;;;10.50;99.90;;;;;;5054726;28;19912;-76
2022/10/23 02:45:38;;;;;;;12.98;7.25;;;10.50;99.90;;;;;;5072787;28;20021;-76
2022/10/23 02:48:26;;;;;;;12.35;7.18;;;10.40;99.90;;;;;;5054922;28;20028;-76
2022/10/23 02:51:20;;;;;;;11.65;8.02;;;10.30;99.90;;;;;;5072795;28;20075;-76
2022/10/23 02:54:12;;;;;;;14.35;9.02;;;10.30;99.90;;;;;;5054443;28;20040;-76
2022/10/23 02:56:51;;;;;;;12.07;9.25;;;10.20;99.90;;;;;;5054683;28;20025;-76
2022/10/23 02:59:21;;;;;;;10.90;8.13;;;10.20;99.90;;;;;;5072354;28;20525;-76
2022/10/23 03:01:57;;;;;;;14.60;10.65;;;10.10;99.90;;;;;;5054489;28;20031;-76
2022/10/23 03:04:25;;;;;;;19.55;10.10;;;10.00;99.90;;;;;;5072394;28;20035;-76
2022/10/23 03:06:51;;;;;;;13.30;10.15;;;9.90;99.90;;;;;;5072227;28;20044;-76
2022/10/23 03:09:16;;;;;;;;;;;9.80;99.90;;;;;;5072696;28;20473;-76
2022/10/23 03:11:42;;;;;;;12.45;10.00;;;9.80;99.90;;;;;;5054210;28;20252;-76
2022/10/23 03:14:08;;;;;;;;;;;9.70;99.90;;;;;;5072614;28;20040;-76
2022/10/23 03:16:33;;;;;;;14.32;10.43;;;9.60;99.90;;;;;;5054052;28;19904;-76
2022/10/23 03:18:59;;;;;;;;;;;9.50;99.90;;;;;;5072523;28;20036;-75
2022/10/23 03:21:25;;;;;;;12.30;10.18;;;9.40;99.90;;;;;;5071943;28;19951;-76
2022/10/23 03:23:50;;;;;;;;;;;9.40;99.90;;;;;;5054441;28;20020;-76
2022/10/23 03:26:16;;;;;;;14.73;10.52;;;9.30;99.90;;;;;;5071856;28;19943;-75
2022/10/23 03:28:41;;;;;;;;;;;9.20;99.90;;;;;;5072310;28;20837;-76
2022/10/23 03:31:07;;;;;;;14.93;11.45;;;9.10;99.90;;;;;;5053984;28;19904;-76
2022/10/23 03:33:32;;;;;;;;;;;9.10;99.90;;;;;;5072410;28;20032;-76
2022/10/23 03:35:58;;;;;;;15.90;11.15;;;9.00;99.90;;;;;;5054310;28;20455;-74
2022/10/23 03:38:23;;;;;;;;;;;9.00;99.90;;;;;;5054415;28;20033;-74
2022/10/23 03:40:49;;;;;;;17.02;12.07;;;8.90;99.90;;;;;;5054380;28;19905;-75
2022/10/23 03:43:14;;;;;;;;;;;8.90;99.90;;;;;;5054789;28;20045;-74
2022/10/23 03:45:40;;;;;;;14.32;9.90;;;8.90;99.90;;;;;;5053583;28;20253;-74
2022/10/23 03:48:06;;;;;;;;;;;8.90;99.90;;;;;;5053981;28;20047;-75
2022/10/23 03:50:32;;;;;;;13.80;8.88;;;9.00;99.90;;;;;;5053777;28;19916;-74
2022/10/23 03:52:57;;;;;;;;;;;8.90;99.90;;;;;;5053846;28;20544;-74
2022/10/23 03:55:24;;;;;;;15.30;10.10;;;8.90;99.90;;;;;;5053690;28;19912;-74
2022/10/23 03:57:50;;;;;;;12.40;9.45;;;8.80;99.90;;;;;;5053589;28;20059;-74
2022/10/23 04:00:15;;;;;;;;;;;8.80;99.90;;;;;;5072393;28;20064;-74
2022/10/23 04:02:41;;;;;;;19.08;12.57;;;8.80;99.90;;;;;;5053491;28;19959;-74
2022/10/23 04:05:06;;;;;;;;;;;8.70;99.90;;;;;;5071850;28;20032;-74
2022/10/23 04:07:32;;;;;;;12.35;9.40;;;8.70;99.90;;;;;;5053546;28;19919;-74
2022/10/23 04:09:58;;;;;;;;;;;8.70;99.90;;;;;;5072281;28;20029;-74
2022/10/23 04:12:23;;;;;;;15.95;11.73;;;8.60;99.90;;;;;;5071890;28;19999;-74
2022/10/23 04:14:49;;;;;;;;;;;8.60;99.90;;;;;;5072204;28;20101;-75
2022/10/23 04:17:14;;;;;;;22.98;15.35;;;8.60;99.90;;;;;;5071792;28;19908;-74
2022/10/23 04:19:40;;;;;;;;;;;8.60;99.90;;;;;;5054341;28;20077;-74
2022/10/23 04:22:05;;;;;;;17.27;10.48;;;8.60;99.90;;;;;;5072537;28;20360;-75
2022/10/23 04:24:31;;;;;;;;;;;8.50;99.90;;;;;;5052996;28;20040;-75
2022/10/23 04:26:56;;;;;;;9.77;7.40;;;8.60;99.90;;;;;;5054351;28;19924;-74
2022/10/23 04:29:23;;;;;;;;;;;8.70;99.90;;;;;;5054503;28;20030;-74
2022/10/23 04:31:50;;;;;;;8.23;6.63;;;8.70;99.90;;;;;;5070811;28;19926;-74
2022/10/23 04:34:16;;;;;;;8.95;6.10;;;8.70;99.90;;;;;;5070443;28;20028;-74
2022/10/23 04:36:42;;;;;;;9.88;6.88;;;8.70;99.90;;;;;;5052555;28;20032;-74
2022/10/23 04:39:07;;;;;;;;;;;8.70;99.90;;;;;;5071917;28;20424;-73
2022/10/23 04:41:33;;;;;;;9.48;5.90;;;8.60;99.90;;;;;;5070443;28;19908;-74
2022/10/23 04:43:58;;;;;;;;;;;8.60;99.90;;;;;;5053298;28;20036;-74
2022/10/23 04:46:24;;;;;;;6.95;5.07;;;8.50;99.90;;;;;;5052891;28;19909;-74
2022/10/23 04:48:50;;;;;;;;;;;8.60;99.90;;;;;;5068853;28;20062;-73
2022/10/23 04:51:15;;;;;;;10.57;7.38;;;8.50;99.90;;;;;;5070511;28;20360;-73
2022/10/23 04:53:41;;;;;;;;;;;8.60;99.90;;;;;;5071104;28;20037;-74
2022/10/23 04:56:07;;;;;;;10.68;7.82;;;8.50;99.90;;;;;;5052484;28;19915;-74
2022/10/23 04:58:32;;;;;;;;;;;8.60;99.90;;;;;;5069319;28;20043;-74
2022/10/23 05:00:58;;;;;;;15.70;10.82;;;8.60;99.90;;;;;;5069479;28;19961;-74
2022/10/23 05:03:24;;;;;;;;;;;8.70;99.90;;;;;;5053059;28;20025;-74
2022/10/23 05:05:53;;;;;;;12.10;8.35;;;8.70;99.90;;;;;;5068654;28;19983;-74
2022/10/23 05:08:19;;;;;;;12.55;9.27;;;8.60;99.90;;;;;;5052397;28;20021;-74
2022/10/23 05:10:46;;;;;;;;;;;8.60;99.90;;;;;;5071012;28;20028;-74
2022/10/23 05:13:12;;;;;;;19.63;11.23;;;8.60;99.90;;;;;;5070324;28;19948;-74
2022/10/23 05:15:37;;;;;;;;;;;8.50;99.90;;;;;;5071066;28;20779;-74
2022/10/23 05:18:33;;;;;;;21.40;12.00;;;8.40;99.90;;;;;;5070283;28;19905;-73
2022/10/23 05:21:09;;;;;;;21.80;15.35;;;8.40;99.90;;;;;;5070145;28;20017;-73
2022/10/23 05:23:36;;;;;;;27.38;18.75;;;8.40;99.90;;;;;;5069955;28;20020;-76
2022/10/23 05:26:03;;;;;;;24.23;17.30;;;8.30;99.90;;;;;;5069656;28;20040;-73
2022/10/23 05:28:29;;;;;;;20.02;14.48;;;8.30;99.90;;;;;;5069678;28;20558;-74
2022/10/23 05:30:57;;;;;;;;;;;8.40;99.90;;;;;;5069464;28;20482;-74
2022/10/23 05:33:23;;;;;;;25.42;15.68;;;8.30;99.90;;;;;;5069982;28;19908;-73
2022/10/23 05:35:49;;;;;;;;;;;8.30;99.90;;;;;;5051642;28;20763;-74
2022/10/23 05:38:15;;;;;;;24.88;16.02;;;8.30;99.90;;;;;;5051793;28;19995;-73
2022/10/23 05:40:40;;;;;;;30.10;18.05;;;8.30;99.90;;;;;;5065978;28;20024;-74
2022/10/23 05:43:06;;;;;;;;;;;8.40;99.90;;;;;;5063722;28;20051;-74
2022/10/23 05:45:31;;;;;;;24.17;13.88;;;8.30;99.90;;;;;;5052055;28;19916;-74
2022/10/23 05:47:57;;;;;;;;;;;8.30;99.90;;;;;;5051854;28;20037;-74
2022/10/23 05:50:22;;;;;;;12.27;7.88;;;8.30;99.90;;;;;;5069570;28;20482;-74
2022/10/23 05:52:48;;;;;;;;;;;8.20;99.90;;;;;;5070516;28;20020;-74
2022/10/23 05:55:15;;;;;;;11.23;7.30;;;8.20;99.90;;;;;;5068535;28;20361;-76
2022/10/23 05:57:40;;;;;;;14.10;7.18;;;8.30;99.90;;;;;;5068417;28;20029;-76
2022/10/23 06:00:06;;;;;;;;;;;8.30;99.90;;;;;;5050734;28;20508;-76
2022/10/23 06:02:32;;;;;;;12.05;7.95;;;8.30;99.90;;;;;;5060659;28;20016;-73
2022/10/23 06:04:58;;;;;;;;;;;8.20;99.90;;;;;;5050343;28;20045;-73
2022/10/23 06:07:25;;;;;;;18.35;13.88;;;8.40;99.90;;;;;;5031914;28;20405;-73
2022/10/23 06:09:51;;;;;;;22.25;15.93;;;8.40;99.90;;;;;;5058044;28;20471;-76
2022/10/23 06:12:18;;;;;;;18.45;13.70;;;8.50;99.90;;;;;;5051176;28;20076;-76
2022/10/23 06:14:43;;;;;;;18.65;12.32;;;8.70;99.90;;;;;;5055030;28;20067;-76
2022/10/23 06:17:09;;;;;;;;;;;8.90;99.90;;;;;;5055828;28;20075;-76
2022/10/23 06:19:34;;;;;;;13.93;8.85;;;9.30;99.90;;;;;;5056148;28;19954;-77
2022/10/23 06:22:00;;;;;;;;;;;9.90;99.90;;;;;;5055612;28;20029;-76
2022/10/23 06:24:25;;;;;;;13.80;9.80;;;10.40;99.90;;;;;;5072392;28;19912;-76
2022/10/23 06:26:51;;;;;;;;;;;11.10;99.90;;;;;;5055101;28;20090;-74
2022/10/23 06:29:16;;;;;;;7.00;3.28;;;11.70;99.90;;;;;;5055073;28;19955;-74
2022/10/23 06:31:42;;;;;;;;;;;12.20;99.90;;;;;;5073503;28;20432;-73
2022/10/23 06:34:10;;;;;;;6.47;4.40;;;12.90;99.90;;;;;;5071658;28;19912;-76
2022/10/23 06:36:37;;;;;;;7.97;4.38;;;13.70;99.90;;;;;;5072258;28;20055;-75
2022/10/23 06:39:03;;;;;;;8.65;4.53;;;14.30;99.90;;;;;;5054395;28;20078;-76
2022/10/23 06:41:29;;;;;;;9.02;6.00;;;14.90;99.90;;;;;;5072598;28;20027;-77
2022/10/23 06:43:54;;;;;;;;;;;15.20;99.90;;;;;;5054756;28;20032;-76
2022/10/23 06:46:21;;;;;;;5.85;3.70;;;15.60;99.90;;;;;;5054517;28;19961;-76
2022/10/23 06:48:46;;;;;;;4.47;2.92;;;15.80;99.90;;;;;;5072351;28;20033;-75
2022/10/23 06:51:15;;;;;;;5.15;3.90;;;15.70;99.90;;;;;;5072137;28;20028;-77
2022/10/23 06:53:42;;;;;;;7.22;3.38;;;15.70;99.90;;;;;;5054092;28;20142;-79
2022/10/23 06:56:09;;;;;;;5.00;3.60;;;15.70;99.90;;;;;;5053941;28;20441;-77
2022/10/23 06:58:36;;;;;;;9.25;3.47;;;15.90;99.90;;;;;;5070020;28;20115;-78
2022/10/23 07:01:05;;;;;;;4.38;3.35;;;16.10;99.90;;;;;;5050951;28;20083;-76
2022/10/23 07:03:31;;;;;;;5.00;3.05;;;16.30;99.90;;;;;;5042918;28;20028;-76
2022/10/23 07:06:01;;;;;;;5.75;2.92;;;16.40;99.90;;;;;;5054399;28;20052;-76
2022/10/23 07:08:27;;;;;;;5.25;2.72;;;16.20;99.90;;;;;;5072392;28;20567;-76
2022/10/23 07:10:52;;;;;;;6.85;3.10;;;16.00;99.90;;;;;;5072705;28;20036;-76
2022/10/23 07:13:18;;;;;;;4.57;3.70;;;15.80;99.90;;;;;;5071270;28;20085;-76
2022/10/23 07:15:44;;;;;;;6.07;4.20;;;15.80;99.90;;;;;;5071023;28;20400;-77
2022/10/23 07:18:13;;;;;;;7.00;5.55;;;15.80;99.90;;;;;;5068920;28;20477;-76
2022/10/23 07:20:42;;;;;;;7.25;5.40;;;15.90;99.90;;;;;;5060699;28;20051;-76
2022/10/23 07:23:10;;;;;;;6.75;5.70;;;15.90;99.90;;;;;;5052306;28;20108;-76
2022/10/23 07:25:36;;;;;;;6.70;4.95;;;16.00;99.90;;;;;;5052534;28;20545;-76
2022/10/23 07:28:03;;;;;;;6.90;4.88;;;16.10;99.90;;;;;;5052652;28;20047;-77
2022/10/23 07:30:30;;;;;;;9.95;5.65;;;16.10;99.90;;;;;;5052194;28;20027;-77
2022/10/23 07:32:55;;;;;;;12.02;8.57;;;16.10;99.90;;;;;;5052213;28;20051;-77
2022/10/23 07:35:21;;;;;;;12.18;9.68;;;16.10;99.90;;;;;;5052113;28;20519;-76
2022/10/23 07:37:47;;;;;;;13.63;9.02;;;16.00;99.90;;;;;;5052227;28;20060;-76
2022/10/23 07:40:13;;;;;;;11.73;7.93;;;16.00;99.90;;;;;;5033802;28;20048;-76
2022/10/23 07:42:39;;;;;;;13.70;8.77;;;15.90;99.90;;;;;;5038679;28;20445;-77
2022/10/23 07:45:06;;;;;;;12.15;9.55;;;15.90;99.90;;;;;;5044993;28;20492;-76
2022/10/23 07:47:32;;;;;;;11.10;9.07;;;15.90;99.90;;;;;;5071843;28;20086;-77
2022/10/23 07:49:58;;;;;;;12.65;9.93;;;15.90;99.90;;;;;;5071639;28;20029;-76
2022/10/23 07:52:24;;;;;;;13.05;9.48;;;16.00;99.90;;;;;;5071028;28;20039;-76
2022/10/23 07:54:51;;;;;;;14.85;10.18;;;16.00;99.90;;;;;;5071661;28;20033;-77
2022/10/23 07:57:16;;;;;;;12.27;9.18;;;16.00;99.90;;;;;;5053499;28;20067;-76
2022/10/23 07:59:42;;;;;;;15.30;9.48;;;16.10;99.90;;;;;;5071606;28;20060;-76
2022/10/23 08:02:12;;;;;;;14.88;8.63;;;16.40;99.90;;;;;;5053428;28;20656;-76
2022/10/23 08:04:38;;;;;;;14.80;8.00;;;16.80;99.90;;;;;;5069696;28;20024;-77
2022/10/23 08:07:04;;;;;;;11.88;7.38;;;17.20;99.90;;;;;;5070741;28;20447;-80
2022/10/23 08:09:30;;;;;;;9.45;6.78;;;17.60;99.90;;;;;;5071115;28;20029;-75
2022/10/23 08:11:55;;;;;;;14.23;8.15;;;18.00;99.90;;;;;;5070505;28;20097;-76
2022/10/23 08:14:21;;;;;;;11.98;8.40;;;18.50;99.90;;;;;;5052475;28;20070;-75
2022/10/23 08:16:47;;;;;;;22.60;13.48;;;19.00;99.90;;;;;;5052605;28;20032;-75
2022/10/23 08:19:12;;;;;;;12.68;8.63;;;19.40;99.90;;;;;;5070407;28;20032;-75
2022/10/23 08:21:38;;;;;;;14.00;8.65;;;19.80;99.90;;;;;;5051971;28;20105;-74
2022/10/23 08:24:04;;;;;;;11.95;8.00;;;20.20;99.90;;;;;;5052591;28;20032;-73
2022/10/23 08:26:30;;;;;;;14.30;8.10;;;20.60;99.90;;;;;;5070312;28;20016;-74
2022/10/23 08:28:58;;;;;;;12.57;8.82;;;20.90;99.90;;;;;;5070175;28;20024;-74
2022/10/23 08:31:24;;;;;;;8.98;7.20;;;21.10;99.90;;;;;;5070296;28;20099;-74
2022/10/23 08:33:50;;;;;;;7.97;6.38;;;21.30;99.90;;;;;;5068797;28;20032;-74
2022/10/23 08:36:25;;;;;;;9.85;8.50;;;21.60;99.90;;;;;;5051772;28;20082;-73
2022/10/23 08:38:54;;;;;;;13.05;7.82;;;22.00;99.90;;;;;;5069852;28;20496;-74
2022/10/23 08:41:33;;;;;;;9.50;6.68;;;22.30;99.90;;;;;;5069962;28;20020;-73
2022/10/23 08:44:02;;;;;;;8.00;5.60;;;22.50;98.50;;;;;;5070052;28;20059;-75
2022/10/23 08:46:33;;;;;;;7.78;5.30;;;22.80;98.50;;;;;;5051829;28;20659;-74
2022/10/23 08:49:19;;;;;;;11.40;9.02;;;23.00;97.60;;;;;;5051810;28;20052;-74
2022/10/23 08:51:48;;;;;;;7.78;7.00;;;23.20;97.00;;;;;;5051988;28;20036;-74
2022/10/23 08:54:23;;;;;;;10.30;9.20;;;23.20;96.90;;;;;;5069567;28;20123;-74
2022/10/23 08:56:59;;;;;;;6.05;5.45;;;23.50;95.80;;;;;;5069624;28;20020;-75
2022/10/23 08:59:45;;;;;;;6.15;4.82;;;23.40;95.60;;;;;;5069698;28;20032;-74
2022/10/23 09:02:23;;;;;;;10.13;7.75;;;23.60;95.20;;;;;;5069509;28;20103;-74
2022/10/23 09:04:52;;;;;;;6.80;5.07;;;24.10;94.40;;;;;;5069751;28;20036;-75
2022/10/23 09:07:28;;;;;;;10.38;6.10;;;24.30;94.20;;;;;;5069303;28;20048;-75
2022/10/23 09:09:53;;;;;;;;;;;24.30;93.70;;;;;;5051911;28;20028;-74
2022/10/23 09:12:24;;;;;;;10.73;6.33;;;24.30;93.40;;;;;;5069476;28;19915;-75
2022/10/23 09:15:21;;;;;;;11.90;6.07;;;24.50;93.00;;;;;;5051330;28;20527;-75
2022/10/23 09:18:03;;;;;;;7.50;6.15;;;24.80;92.50;;;;;;5069497;28;20109;-75
2022/10/23 09:20:33;;;;;;;7.47;6.10;;;24.90;92.40;;;;;;5069277;28;20078;-75
2022/10/23 09:23:23;;;;;;;11.30;6.40;;;25.10;91.70;;;;;;5068827;28;20035;-75
2022/10/23 09:25:55;;;;;;;6.85;5.95;;;24.80;92.20;;;;;;5069290;28;20021;-75
2022/10/23 09:28:26;;;;;;;6.90;5.63;;;24.70;92.70;;;;;;5069026;28;20047;-76
2022/10/23 09:30:52;;;;;;;10.38;7.57;;;25.00;92.10;;;;;;5069337;28;20455;-76
2022/10/23 09:33:23;;;;;;;7.95;6.03;;;25.10;91.40;;;;;;5051190;28;20492;-76
2022/10/23 09:35:57;;;;;;;9.13;5.38;;;24.90;91.40;;;;;;5068852;28;20469;-76
2022/10/23 09:38:46;;;;;;;6.40;5.10;;;24.90;91.20;;;;;;5051480;28;20081;-74
2022/10/23 09:41:30;;;;;;;7.80;5.25;;;24.70;91.40;;;;;;5035680;28;20040;-75
2022/10/23 09:44:26;;;;;;;9.50;5.07;;;24.40;92.00;;;;;;5068754;28;20032;-74
2022/10/23 09:46:54;;;;;;;8.20;4.37;;;23.60;92.90;;;;;;5066838;28;20439;-76
2022/10/23 09:49:21;;;;;;;5.90;4.25;;;23.00;94.10;;;;;;5069019;28;20301;-75
2022/10/23 09:52:08;;;;;;;5.53;4.55;;;22.60;94.70;;;;;;5069068;28;20094;-75
2022/10/23 09:54:46;;;;;;;5.43;3.88;;;22.10;95.40;;;;;;5068884;28;20044;-75
2022/10/23 09:57:31;;;;;;;5.57;4.32;;;21.60;96.10;;;;;;5051275;28;20057;-75
2022/10/23 10:00:17;;;;;;;6.10;4.38;;;21.20;97.10;;;;;;5068954;28;20508;-75
2022/10/23 10:02:54;;;;;;;8.48;3.80;;;20.80;98.50;;;;;;5050624;28;20400;-75
2022/10/23 10:05:23;;;;;;;4.82;4.10;;;20.60;99.30;;;;;;5068272;28;20451;-74
2022/10/23 10:08:14;;;;;;;8.05;5.63;;;20.30;99.90;;;;;;5050577;28;20098;-76
2022/10/23 10:10:46;;;;;;;6.28;4.88;;;20.10;99.90;;;;;;5033737;28;20041;-75
2022/10/23 10:13:32;;;;;;;8.00;4.53;;;19.80;99.90;;;;;;5068217;28;20040;-78
2022/10/23 10:16:32;;;;;;;5.83;4.20;;;19.70;99.90;;;;;;5051282;28;20420;-77
2022/10/23 10:19:16;;;;;;;4.75;3.10;;;19.60;99.90;;;;;;5009191;28;20382;-82
2022/10/23 10:22:07;;;;;;;5.57;3.03;;;19.40;99.90;;;;;;5048860;28;20499;-75
2022/10/23 10:24:57;;;;;;;5.55;3.38;;;19.30;99.90;;;;;;5030982;28;20562;-76
2022/10/23 10:27:41;;;;;;;5.22;3.10;;;19.40;99.90;;;;;;5049121;28;20031;-77
2022/10/23 10:30:09;;;;;;;5.88;3.28;;;19.30;99.90;;;;;;5031083;28;20120;-78
2022/10/23 10:33:01;;;;;;;5.28;3.40;;;19.30;99.90;;;;;;5030669;28;20492;-79
2022/10/23 10:35:51;;;;;;;4.32;2.78;;;19.30;99.90;;;;;;5030826;28;20040;-76
2022/10/23 10:38:25;;;;;;;4.72;3.05;;;19.20;99.90;;;;;;5030841;28;20029;-76
2022/10/23 10:41:31;;;;;;;7.57;3.25;;;19.20;99.90;;;;;;5031068;28;20029;-76
2022/10/23 10:44:17;;;;;;;5.03;2.92;;;19.20;99.90;;;;;;5048847;28;20079;-77
2022/10/23 10:46:43;;;;;;;6.72;2.65;;;19.20;99.90;;;;;;5048708;28;20029;-76
2022/10/23 10:49:37;;;;;;;8.07;3.22;;;19.20;99.90;;;;;;5030952;28;20051;-75
2022/10/23 10:52:12;;;;;;;4.93;3.58;;;19.20;99.90;;;;;;5048559;28;20159;-74
2022/10/23 10:55:11;;;;;;;4.25;2.75;;;19.20;99.90;;;;;;5048414;28;20063;-77
2022/10/23 10:57:47;;;;;;;8.90;4.05;;;19.20;99.90;;;;;;5033381;28;20067;-75
2022/10/23 11:00:19;;;;;;;3.95;2.03;;;19.30;99.90;;;;;;5049587;28;20044;-74
2022/10/23 11:02:58;;;;;;;3.40;2.20;;;19.20;99.90;;;;;;5034117;28;20064;-76
2022/10/23 11:05:30;;;;;;;3.33;1.85;;;19.30;99.90;;;;;;5051163;28;20087;-75
2022/10/23 11:08:15;;;;;;;3.08;1.63;;;19.30;99.90;;;;;;5034177;28;20124;-76
2022/10/23 11:10:45;;;;;;;3.05;1.70;;;19.30;99.90;;;;;;5051909;28;20075;-76
2022/10/23 11:13:24;;;;;;;6.57;1.92;;;19.30;99.90;;;;;;5034106;28;20108;-75
2022/10/23 11:15:51;;;;;;;4.85;2.53;;;19.20;99.90;;;;;;5052084;28;20548;-76
2022/10/23 11:18:26;;;;;;;8.15;2.88;;;19.30;99.90;;;;;;5033929;28;20127;-77
2022/10/23 11:21:08;;;;;;;5.25;2.55;;;19.30;99.90;;;;;;5052037;28;20039;-77
2022/10/23 11:24:12;;;;;;;9.50;3.95;;;19.30;99.90;;;;;;5052170;28;20029;-75
2022/10/23 11:27:01;;;;;;;6.82;4.90;;;19.30;99.90;;;;;;5050654;28;20082;-76
2022/10/23 11:29:27;;;;;;;10.02;4.03;;;19.20;99.90;;;;;;5033923;28;20112;-76
2022/10/23 11:32:04;;;;;;;5.50;4.05;;;19.30;99.90;;;;;;5033940;28;20449;-76
2022/10/23 11:34:46;;;;;;;11.50;4.32;;;19.20;99.90;;;;;;5051432;28;20044;-75
2022/10/23 11:37:20;;;;;;;7.05;5.60;;;19.10;99.90;;;;;;5051690;28;20029;-76
2022/10/23 11:40:22;;;;;;;6.22;4.93;;;19.10;99.90;;;;;;5033713;28;20480;-77
2022/10/23 11:42:49;;;;;;;7.35;4.85;;;19.10;99.90;;;;;;5010658;28;20670;-77
2022/10/23 11:45:33;;;;;;;8.73;5.15;;;19.10;99.90;;;;;;5033459;28;20055;-75
2022/10/23 11:48:03;;;;;;;9.50;7.03;;;19.10;99.90;;;;;;5051381;28;20035;-75
2022/10/23 11:50:50;;;;;;;9.02;7.00;;;19.10;99.90;;;;;;5033514;28;20116;-76
2022/10/23 11:53:30;;;;;;;13.68;7.88;;;19.10;99.90;;;;;;5031026;28;20562;-76
2022/10/23 11:56:19;;;;;;;9.27;6.72;;;19.10;99.90;;;;;;5033587;28;20033;-77
2022/10/23 11:58:56;;;;;;;8.43;6.68;;;19.10;99.90;;;;;;5020115;28;20398;-75
2022/10/23 12:01:44;;;;;;;10.05;5.82;;;19.10;99.90;;;;;;5051102;28;20032;-76
2022/10/23 12:04:12;;;;;;;12.05;6.70;;;19.10;99.90;;;;;;5051221;28;20025;-76
2022/10/23 12:06:40;;;;;;;7.78;5.45;;;19.00;99.90;;;;;;5050705;28;20063;-76
2022/10/23 12:09:20;;;;;;;7.10;5.60;;;19.00;99.90;;;;;;5050821;28;20059;-76
2022/10/23 12:11:50;;;;;;;9.00;5.88;;;19.10;99.90;;;;;;5033198;28;20025;-76
2022/10/23 12:14:49;;;;;;;11.60;7.15;;;19.20;99.90;;;;;;5050936;28;20064;-76
2022/10/23 12:17:36;;;;;;;6.10;4.90;;;19.20;99.90;;;;;;4979909;28;20035;-77
2022/10/23 12:20:11;;;;;;;8.73;6.10;;;19.20;99.90;;;;;;5032874;28;20071;-77
2022/10/23 12:23:22;;;;;;;8.07;6.75;;;19.30;99.90;;;;;;5050707;28;20053;-78
2022/10/23 12:25:53;;;;;;;8.70;6.32;;;19.30;99.90;;;;;;5049383;28;20040;-76
2022/10/23 12:28:46;;;;;;;9.48;6.45;;;19.30;99.90;;;;;;5032796;28;20025;-77
2022/10/23 12:31:44;;;;;;;9.70;5.75;;;19.40;99.90;;;;;;5050783;28;20029;-77
2022/10/23 12:34:21;;;;;;;10.77;7.53;;;19.50;99.90;;;;;;5050608;28;20075;-78
2022/10/23 12:37:07;;;;;;;7.13;5.93;;;19.50;99.90;;;;;;5032641;28;20492;-79
2022/10/23 12:39:36;;;;;;;10.55;8.10;;;19.50;99.90;;;;;;5032498;28;20044;-79
2022/10/23 12:42:03;;;;;;;10.38;6.65;;;19.50;99.90;;;;;;5032535;28;20120;-75
2022/10/23 12:44:29;;;;;;;12.27;8.85;;;19.40;99.90;;;;;;5032338;28;20056;-76
2022/10/23 12:47:00;;;;;;;10.27;7.72;;;19.40;99.90;;;;;;5050371;28;20370;-76
2022/10/23 12:49:30;;;;;;;9.82;7.07;;;19.40;99.90;;;;;;5032549;28;20025;-77
2022/10/23 12:51:58;;;;;;;9.18;6.65;;;19.40;99.90;;;;;;5032384;28;20102;-76
2022/10/23 12:54:23;;;;;;;8.10;5.00;;;19.50;99.90;;;;;;5032194;28;20087;-76
2022/10/23 12:56:50;;;;;;;9.77;6.88;;;19.50;99.90;;;;;;5032515;28;20029;-77
2022/10/23 12:59:18;;;;;;;11.95;8.05;;;19.50;99.90;;;;;;5050183;28;20033;-77
2022/10/23 13:01:44;;;;;;;10.30;6.97;;;19.50;99.90;;;;;;5032292;28;20040;-78
2022/10/23 13:04:09;;;;;;;10.20;7.35;;;19.40;99.90;;;;;;5032251;28;20030;-76
2022/10/23 13:06:37;;;;;;;11.43;7.88;;;19.40;99.90;;;;;;5031654;28;20409;-76
2022/10/23 13:09:03;;;;;;;9.00;6.38;;;19.40;99.90;;;;;;5032047;28;20040;-76
2022/10/23 13:11:30;;;;;;;9.02;5.97;;;19.40;99.90;;;;;;5050124;28;20029;-77
2022/10/23 13:13:56;;;;;;;7.28;5.45;;;19.40;99.90;;;;;;5049643;28;20041;-76
2022/10/23 13:16:23;;;;;;;8.98;6.72;;;19.40;99.90;;;;;;5031920;28;20064;-75
2022/10/23 13:18:49;;;;;;;8.23;6.68;;;19.40;99.90;;;;;;5049325;28;20043;-76
2022/10/23 13:21:25;;;;;;;8.15;5.88;;;19.30;99.90;;;;;;5031923;28;20105;-75